Time;durP1;ratioP1;P1;durP2;ratioP2;P2;SDS_P1;SDS_P2;PMS_P1;PMS_P2;Temp;Humidity;BMP_temperature;BMP_pressure;BME280_temperature;BME280_humidity;BME280_pressure;Samples;Min_cycle;Max_cycle;Signal;HPM_P1;HPM_P2
2023/08/21 00:01:50;;;;;;;10.10;9.20;;;;;;;25.67;55.96;100658.03;5028117;28;20213;-65
2023/08/21 00:04:18;;;;;;;11.73;10.45;;;;;;;25.65;56.80;100654.63;5030209;28;20206;-63
2023/08/21 00:06:46;;;;;;;11.63;10.48;;;;;;;25.66;56.50;100664.22;5030095;28;20207;-63
2023/08/21 00:09:15;;;;;;;11.93;10.48;;;;;;;25.66;56.26;100659.78;5030660;28;20582;-63
2023/08/21 00:11:43;;;;;;;10.18;9.10;;;;;;;25.67;56.14;100663.31;5029093;28;20256;-62
2023/08/21 00:14:11;;;;;;;11.40;10.20;;;;;;;25.68;56.69;100667.63;5022338;28;20210;-63
2023/08/21 00:16:39;;;;;;;11.32;10.13;;;;;;;25.65;56.79;100670.47;5030085;28;20250;-65
2023/08/21 00:19:07;;;;;;;13.60;10.75;;;;;;;25.64;56.93;100674.06;5016491;28;20222;-62
2023/08/21 00:21:35;;;;;;;12.27;10.95;;;;;;;25.58;56.68;100669.16;5030469;28;20661;-60
2023/08/21 00:24:03;;;;;;;11.88;10.70;;;;;;;25.51;56.59;100668.69;5031561;28;20264;-62
2023/08/21 00:26:33;;;;;;;11.32;10.32;;;;;;;25.47;57.08;100667.19;5032997;28;20205;-63
2023/08/21 00:29:01;;;;;;;10.60;9.63;;;;;;;25.46;56.94;100665.50;5020214;28;20230;-61
2023/08/21 00:31:28;;;;;;;11.52;9.55;;;;;;;25.44;57.56;100664.75;5033101;28;20734;-62
2023/08/21 00:33:57;;;;;;;11.70;10.60;;;;;;;25.40;57.60;100666.75;5033246;28;20276;-66
2023/08/21 00:36:24;;;;;;;11.75;10.55;;;;;;;25.38;58.02;100673.06;5033640;28;20776;-62
2023/08/21 00:38:52;;;;;;;11.18;10.07;;;;;;;25.33;58.19;100668.06;5033485;28;20638;-62
2023/08/21 00:41:20;;;;;;;11.93;10.73;;;;;;;25.30;57.88;100671.78;5033283;28;20226;-63
2023/08/21 00:43:49;;;;;;;11.65;10.55;;;;;;;25.28;57.88;100672.81;5032075;28;20207;-62
2023/08/21 00:46:18;;;;;;;12.02;10.93;;;;;;;25.24;58.31;100677.41;5033379;28;20576;-62
2023/08/21 00:48:46;;;;;;;11.35;10.27;;;;;;;25.23;58.44;100674.88;5032593;28;20229;-62
2023/08/21 00:51:16;;;;;;;12.30;11.10;;;;;;;25.17;58.69;100672.63;5033296;28;20214;-62
2023/08/21 00:53:45;;;;;;;12.20;11.15;;;;;;;25.15;58.73;100674.50;5026449;28;20698;-62
2023/08/21 00:56:14;;;;;;;12.85;11.65;;;;;;;25.07;58.66;100672.31;5026936;28;20625;-62
2023/08/21 00:58:43;;;;;;;17.67;12.02;;;;;;;24.99;59.63;100680.69;5032879;28;20298;-63
2023/08/21 01:01:15;;;;;;;13.38;12.07;;;;;;;24.95;59.79;100671.28;5032953;28;20207;-62
2023/08/21 01:03:43;;;;;;;13.15;11.70;;;;;;;24.94;59.97;100671.38;5032599;28;20211;-62
2023/08/21 01:06:12;;;;;;;12.10;10.80;;;;;;;24.92;59.70;100674.09;5032877;28;20301;-65
2023/08/21 01:08:48;;;;;;;12.65;11.27;;;;;;;24.94;60.21;100674.03;5032938;28;20280;-62
2023/08/21 01:11:23;;;;;;;12.38;11.00;;;;;;;24.92;59.96;100674.09;5033050;28;20214;-62
2023/08/21 01:14:08;;;;;;;13.57;12.32;;;;;;;24.94;60.19;100674.03;5031412;28;20246;-61
2023/08/21 01:16:38;;;;;;;15.02;11.68;;;;;;;24.92;60.32;100676.75;5032430;28;20624;-62
2023/08/21 01:19:13;;;;;;;12.98;11.30;;;;;;;24.92;60.71;100675.91;5032604;28;20234;-61
2023/08/21 01:21:41;;;;;;;12.48;11.38;;;;;;;24.90;60.29;100673.38;5032874;28;20723;-61
2023/08/21 01:24:11;;;;;;;13.10;11.70;;;;;;;24.82;60.97;100675.63;5019645;28;20191;-60
2023/08/21 01:26:39;;;;;;;14.10;11.75;;;;;;;24.81;61.03;100679.19;5032347;28;20301;-63
2023/08/21 01:29:07;;;;;;;14.70;13.30;;;;;;;24.81;60.89;100676.53;5032131;28;20218;-62
2023/08/21 01:31:36;;;;;;;14.95;12.07;;;;;;;24.75;61.04;100679.56;5032268;28;20592;-64
2023/08/21 01:34:09;;;;;;;14.13;12.73;;;;;;;24.63;61.99;100685.56;5031497;28;20748;-64
2023/08/21 01:36:37;;;;;;;14.45;12.95;;;;;;;24.52;62.58;100684.44;5018524;28;20296;-63
2023/08/21 01:39:05;;;;;;;13.95;12.32;;;;;;;24.50;62.62;100690.72;5020210;28;20702;-61
2023/08/21 01:41:34;;;;;;;13.98;12.57;;;;;;;24.49;62.87;100689.03;5031026;28;20834;-63
2023/08/21 01:44:02;;;;;;;14.68;13.15;;;;;;;24.49;63.00;100683.78;5031546;28;20206;-62
2023/08/21 01:46:30;;;;;;;14.75;13.43;;;;;;;24.48;63.08;100684.69;5028487;28;20207;-60
2023/08/21 01:48:58;;;;;;;13.85;12.57;;;;;;;24.47;63.30;100685.63;5029856;28;20337;-64
2023/08/21 01:51:26;;;;;;;14.30;12.93;;;;;;;24.45;63.15;100687.50;5032149;28;20296;-61
2023/08/21 01:53:54;;;;;;;14.80;13.30;;;;;;;24.39;63.46;100688.72;5032069;28;20656;-61
2023/08/21 01:56:23;;;;;;;14.35;12.85;;;;;;;24.37;63.93;100684.44;5030947;28;20203;-61
2023/08/21 01:58:52;;;;;;;14.25;12.85;;;;;;;24.35;63.70;100674.00;5032167;28;20207;-60
2023/08/21 02:01:20;;;;;;;13.73;12.32;;;;;;;24.34;63.80;100674.97;5031949;28;20665;-61
2023/08/21 02:03:48;;;;;;;14.27;12.80;;;;;;;24.34;64.15;100681.06;5031296;28;20625;-62
2023/08/21 02:06:16;;;;;;;14.18;12.88;;;;;;;24.30;64.12;100679.56;5032035;28;20675;-62
2023/08/21 02:08:44;;;;;;;15.13;12.75;;;;;;;24.27;64.41;100671.00;5031625;28;20253;-63
2023/08/21 02:11:12;;;;;;;14.32;12.90;;;;;;;24.25;64.55;100670.22;5031961;28;20286;-60
2023/08/21 02:13:40;;;;;;;14.45;12.98;;;;;;;24.23;64.41;100665.06;5029808;28;20211;-60
2023/08/21 02:16:09;;;;;;;14.18;12.85;;;;;;;24.21;64.73;100663.44;5031739;28;20199;-63
2023/08/21 02:18:37;;;;;;;15.15;11.73;;;;;;;24.19;64.50;100668.81;5031293;28;20236;-62
2023/08/21 02:21:05;;;;;;;14.27;12.77;;;;;;;24.18;64.60;100666.25;5031465;28;20211;-61
2023/08/21 02:23:33;;;;;;;14.82;13.32;;;;;;;24.19;64.67;100660.03;5031499;28;20629;-61
2023/08/21 02:26:01;;;;;;;14.65;12.77;;;;;;;24.17;64.79;100656.66;5031456;28;20634;-61
2023/08/21 02:28:29;;;;;;;14.70;13.25;;;;;;;24.15;64.75;100659.38;5031246;28;20206;-62
2023/08/21 02:30:57;;;;;;;14.63;12.73;;;;;;;24.11;64.88;100658.69;5031281;28;20335;-60
2023/08/21 02:33:27;;;;;;;14.60;13.10;;;;;;;24.10;64.99;100661.44;5031239;28;20397;-62
2023/08/21 02:35:54;;;;;;;13.88;12.32;;;;;;;24.05;65.39;100674.03;5031177;28;20241;-63
2023/08/21 02:38:22;;;;;;;13.20;11.70;;;;;;;23.99;65.64;100669.94;5031462;28;20564;-62
2023/08/21 02:40:50;;;;;;;13.82;12.60;;;;;;;23.96;65.57;100675.38;5018677;28;20273;-61
2023/08/21 02:43:18;;;;;;;14.65;13.15;;;;;;;23.97;65.62;100677.09;5029627;28;20276;-63
2023/08/21 02:45:46;;;;;;;18.98;14.07;;;;;;;23.93;65.85;100677.34;5030923;28;20260;-61
2023/08/21 02:48:14;;;;;;;15.57;12.88;;;;;;;23.90;65.70;100681.00;5031042;28;20639;-61
2023/08/21 02:50:44;;;;;;;15.68;13.13;;;;;;;23.87;65.94;100678.56;5031005;28;20198;-62
2023/08/21 02:53:11;;;;;;;14.13;12.73;;;;;;;23.83;66.18;100674.41;5028582;28;20218;-61
2023/08/21 02:55:39;;;;;;;15.07;13.57;;;;;;;23.78;66.26;100673.78;5019833;28;20301;-61
2023/08/21 02:58:07;;;;;;;15.43;13.82;;;;;;;23.77;66.56;100680.00;5031136;28;20658;-62
2023/08/21 03:00:36;;;;;;;14.45;12.95;;;;;;;23.77;66.53;100675.59;5030788;28;20214;-61
2023/08/21 03:03:05;;;;;;;15.93;13.88;;;;;;;23.78;66.72;100679.06;5030218;28;20207;-60
2023/08/21 03:05:33;;;;;;;15.43;13.90;;;;;;;23.78;66.71;100671.16;5017455;28;20600;-61
2023/08/21 03:08:02;;;;;;;14.40;12.93;;;;;;;23.75;66.62;100666.06;5030903;28;20649;-60
2023/08/21 03:10:33;;;;;;;14.73;13.25;;;;;;;23.76;66.53;100665.16;5030977;28;20240;-61
2023/08/21 03:13:01;;;;;;;14.75;13.20;;;;;;;23.77;66.71;100667.69;5030861;28;20213;-62
2023/08/21 03:15:29;;;;;;;14.35;12.93;;;;;;;23.76;66.78;100667.78;5030505;28;20215;-63
2023/08/21 03:17:57;;;;;;;14.52;13.05;;;;;;;23.75;66.39;100672.22;5030557;28;20301;-65
2023/08/21 03:20:25;;;;;;;15.02;13.43;;;;;;;23.73;66.57;100660.06;5030886;28;20735;-64
2023/08/21 03:22:53;;;;;;;16.30;13.15;;;;;;;23.72;66.98;100655.75;5030955;28;20662;-61
2023/08/21 03:25:22;;;;;;;14.93;13.43;;;;;;;23.71;66.89;100661.91;5030674;28;20570;-61
2023/08/21 03:27:50;;;;;;;15.25;13.80;;;;;;;23.72;67.03;100666.25;5030771;28;20214;-62
2023/08/21 03:30:18;;;;;;;15.80;13.40;;;;;;;23.68;66.75;100665.59;5030346;28;20202;-61
2023/08/21 03:32:46;;;;;;;15.30;13.82;;;;;;;23.60;66.97;100668.63;5029819;28;20202;-62
2023/08/21 03:35:14;;;;;;;15.55;13.85;;;;;;;23.54;67.36;100676.84;5030781;28;20659;-61
2023/08/21 03:37:42;;;;;;;14.88;13.38;;;;;;;23.50;67.64;100674.47;5030336;28;20206;-60
2023/08/21 03:40:11;;;;;;;16.13;14.57;;;;;;;23.46;67.84;100673.78;5030637;28;20384;-61
2023/08/21 03:42:40;;;;;;;16.73;14.93;;;;;;;23.41;67.78;100677.59;5030726;28;20688;-60
2023/08/21 03:45:09;;;;;;;15.77;14.35;;;;;;;23.38;68.12;100679.47;5030395;28;20245;-61
2023/08/21 03:47:37;;;;;;;15.93;14.30;;;;;;;23.36;68.34;100678.69;5030446;28;20234;-59
2023/08/21 03:50:05;;;;;;;16.20;14.60;;;;;;;23.34;68.38;100679.72;5030490;28;20233;-60
2023/08/21 03:52:33;;;;;;;15.30;13.90;;;;;;;23.35;68.55;100679.63;5030396;28;20302;-60
2023/08/21 03:55:01;;;;;;;15.63;14.00;;;;;;;23.33;68.59;100685.91;5030056;28;20314;-61
2023/08/21 03:57:29;;;;;;;17.38;14.38;;;;;;;23.36;68.84;100683.13;5030865;28;20202;-60
2023/08/21 03:59:59;;;;;;;16.20;14.60;;;;;;;23.36;68.55;100677.84;5034198;28;20207;-60
2023/08/21 04:02:26;;;;;;;16.55;15.05;;;;;;;23.37;68.42;100671.66;5027434;28;20230;-61
2023/08/21 04:04:54;;;;;;;16.75;15.00;;;;;;;23.39;68.70;100668.03;5033910;28;20725;-60
2023/08/21 04:07:22;;;;;;;15.50;14.05;;;;;;;23.43;68.59;100671.31;5033987;28;20205;-60
2023/08/21 04:09:50;;;;;;;17.13;15.32;;;;;;;23.48;68.34;100669.28;5033991;28;20248;-62
2023/08/21 04:12:18;;;;;;;16.95;15.18;;;;;;;23.52;68.22;100673.44;5033911;28;20544;-65
2023/08/21 04:14:46;;;;;;;15.90;14.30;;;;;;;23.57;67.85;100679.31;5033748;28;20223;-61
2023/08/21 04:17:15;;;;;;;16.85;15.18;;;;;;;23.58;67.69;100675.72;5033568;28;20209;-62
2023/08/21 04:19:43;;;;;;;16.88;14.88;;;;;;;23.64;68.02;100679.81;5023156;28;20235;-68
2023/08/21 04:22:12;;;;;;;20.08;15.05;;;;;;;23.71;67.87;100675.06;5031510;28;20202;-69
2023/08/21 04:24:41;;;;;;;16.42;14.30;;;;;;;23.78;67.14;100685.16;5034288;28;20207;-68
2023/08/21 04:27:09;;;;;;;15.45;13.85;;;;;;;23.82;67.12;100685.84;5033820;28;20282;-68
2023/08/21 04:29:37;;;;;;;16.02;14.43;;;;;;;23.83;67.17;100691.03;5034035;28;20203;-69
2023/08/21 04:32:06;;;;;;;16.80;15.15;;;;;;;23.83;67.25;100684.94;5033584;28;20238;-69
2023/08/21 04:34:35;;;;;;;16.77;14.95;;;;;;;23.80;67.28;100685.94;5032974;28;20611;-68
2023/08/21 04:37:04;;;;;;;16.65;14.82;;;;;;;23.79;67.29;100686.03;5033476;28;20203;-69
2023/08/21 04:39:32;;;;;;;17.10;15.35;;;;;;;23.78;67.14;100692.22;5033419;28;20237;-69
2023/08/21 04:42:00;;;;;;;16.52;15.02;;;;;;;23.80;67.59;100685.09;5033602;28;20211;-69
2023/08/21 04:44:28;;;;;;;16.65;14.95;;;;;;;23.89;67.48;100684.56;5033602;28;20203;-68
2023/08/21 04:46:56;;;;;;;17.23;15.43;;;;;;;24.00;66.87;100691.84;5033868;28;20213;-68
2023/08/21 04:49:24;;;;;;;19.88;15.82;;;;;;;24.13;66.76;100684.13;5033697;28;20689;-68
2023/08/21 04:51:53;;;;;;;17.27;15.27;;;;;;;24.28;66.20;100685.84;5033249;28;20272;-68
2023/08/21 04:54:21;;;;;;;16.10;14.68;;;;;;;24.37;65.55;100690.56;5032681;28;20638;-67
2023/08/21 04:56:49;;;;;;;15.68;14.18;;;;;;;24.34;65.31;100681.06;5033629;28;20681;-64
2023/08/21 04:59:17;;;;;;;17.20;14.77;;;;;;;24.28;65.34;100681.41;5033475;28;20280;-66
2023/08/21 05:01:45;;;;;;;16.27;14.55;;;;;;;24.23;66.00;100690.50;5032932;28;20199;-64
2023/08/21 05:04:13;;;;;;;19.67;15.63;;;;;;;24.18;66.05;100695.22;5033257;28;20261;-66
2023/08/21 05:06:41;;;;;;;16.80;15.00;;;;;;;24.13;66.31;100697.28;5033069;28;20209;-66
2023/08/21 05:09:10;;;;;;;16.77;15.18;;;;;;;24.09;66.11;100686.91;5032967;28;20281;-66
2023/08/21 05:11:38;;;;;;;19.38;16.17;;;;;;;24.06;66.21;100696.78;5032524;28;20229;-64
2023/08/21 05:14:06;;;;;;;16.92;15.23;;;;;;;24.06;66.33;100692.34;5032798;28;20241;-65
2023/08/21 05:16:34;;;;;;;18.42;15.50;;;;;;;24.06;66.88;100688.88;5032976;28;20677;-66
2023/08/21 05:19:02;;;;;;;15.05;13.73;;;;;;;24.05;66.61;100703.81;5032495;28;20199;-66
2023/08/21 05:21:30;;;;;;;16.17;14.65;;;;;;;24.09;66.89;100696.59;5032405;28;20213;-66
2023/08/21 05:23:58;;;;;;;16.20;14.73;;;;;;;24.19;66.62;100696.91;5030970;28;20565;-68
2023/08/21 05:26:28;;;;;;;15.63;14.13;;;;;;;24.28;66.56;100691.97;5028843;28;20195;-65
2023/08/21 05:28:55;;;;;;;15.15;13.73;;;;;;;24.38;66.02;100694.91;5032702;28;20209;-64
2023/08/21 05:31:23;;;;;;;16.85;15.10;;;;;;;24.43;65.78;100700.78;5030374;28;20270;-66
2023/08/21 05:33:51;;;;;;;15.60;14.02;;;;;;;24.46;65.41;100710.31;5032580;28;20218;-64
2023/08/21 05:36:19;;;;;;;15.98;14.48;;;;;;;24.44;65.55;100702.47;5028623;28;20235;-66
2023/08/21 05:38:48;;;;;;;16.33;14.60;;;;;;;24.53;65.61;100707.22;5022390;28;20225;-66
2023/08/21 05:41:16;;;;;;;17.02;15.45;;;;;;;24.63;65.28;100698.75;5031455;28;20237;-66
2023/08/21 05:43:47;;;;;;;15.10;13.68;;;;;;;24.75;64.84;100700.66;5030738;28;20203;-65
2023/08/21 05:46:15;;;;;;;16.67;15.07;;;;;;;25.01;64.70;100707.00;5030566;28;20226;-66
2023/08/21 05:48:43;;;;;;;15.90;13.98;;;;;;;25.19;62.91;100711.16;5032451;28;20218;-65
2023/08/21 05:51:11;;;;;;;16.42;13.85;;;;;;;25.17;63.05;100712.19;5031981;28;20206;-67
2023/08/21 05:53:39;;;;;;;17.70;14.98;;;;;;;25.15;63.13;100717.56;5018893;28;20650;-66
2023/08/21 05:56:07;;;;;;;15.25;13.65;;;;;;;25.14;62.87;100720.28;5031776;28;20221;-67
2023/08/21 05:58:34;;;;;;;19.20;13.93;;;;;;;25.14;63.28;100722.91;5032019;28;20257;-65
2023/08/21 06:01:06;;;;;;;16.38;14.00;;;;;;;25.10;63.27;100727.53;5031661;28;20202;-65
2023/08/21 06:03:34;;;;;;;15.95;14.27;;;;;;;25.04;62.95;100733.19;5031586;28;20218;-67
2023/08/21 06:06:02;;;;;;;15.90;14.25;;;;;;;24.97;63.36;100727.41;5031830;28;20203;-66
2023/08/21 06:08:30;;;;;;;16.05;14.38;;;;;;;24.93;63.95;100736.47;5031880;28;20556;-65
2023/08/21 06:10:58;;;;;;;15.73;14.15;;;;;;;25.30;63.61;100744.78;5031862;28;20293;-65
2023/08/21 06:13:26;;;;;;;14.88;13.30;;;;;;;26.48;60.39;100738.09;5031684;28;20257;-65
2023/08/21 06:15:54;;;;;;;16.13;14.52;;;;;;;27.03;55.96;100729.97;5031755;28;20222;-66
2023/08/21 06:18:24;;;;;;;15.23;13.73;;;;;;;27.00;56.23;100735.50;5031356;28;20199;-67
2023/08/21 06:20:53;;;;;;;16.48;14.80;;;;;;;26.65;57.14;100741.38;5030822;28;20211;-64
2023/08/21 06:23:21;;;;;;;16.52;14.77;;;;;;;26.24;58.41;100737.88;5031154;28;20213;-65
2023/08/21 06:25:50;;;;;;;16.92;15.27;;;;;;;25.91;59.63;100743.56;5030725;28;20214;-66
2023/08/21 06:28:18;;;;;;;17.50;15.68;;;;;;;25.62;60.73;100739.28;5031438;28;20206;-65
2023/08/21 06:30:46;;;;;;;16.02;14.43;;;;;;;25.40;61.76;100748.53;5031305;28;20626;-64
2023/08/21 06:33:14;;;;;;;19.23;15.00;;;;;;;25.22;62.30;100754.94;5017641;28;20199;-65
2023/08/21 06:35:43;;;;;;;15.50;14.10;;;;;;;25.57;63.54;100757.19;5031508;28;20244;-66
2023/08/21 06:38:11;;;;;;;17.58;14.30;;;;;;;26.54;60.75;100763.25;5031432;28;20828;-66
2023/08/21 06:40:39;;;;;;;18.50;14.70;;;;;;;27.24;56.28;100770.00;5031396;28;20198;-66
2023/08/21 06:43:07;;;;;;;15.07;13.63;;;;;;;27.35;55.42;100760.34;5031183;28;20230;-65
2023/08/21 06:45:35;;;;;;;14.65;13.25;;;;;;;27.38;55.86;100762.78;5031672;28;20205;-66
2023/08/21 06:48:03;;;;;;;15.73;14.18;;;;;;;27.99;54.74;100757.56;5031164;28;20210;-65
2023/08/21 06:50:31;;;;;;;15.05;13.55;;;;;;;28.36;53.10;100761.00;5031403;28;20282;-67
2023/08/21 06:53:01;;;;;;;15.15;13.75;;;;;;;28.50;52.36;100775.03;5030067;28;20648;-70
2023/08/21 06:55:29;;;;;;;13.57;12.38;;;;;;;27.98;53.36;100789.47;5029858;28;20597;-68
2023/08/21 06:57:57;;;;;;;16.42;12.73;;;;;;;27.38;54.87;100783.09;5031003;28;20231;-68
2023/08/21 07:00:25;;;;;;;13.48;12.18;;;;;;;26.91;56.76;100801.28;5031010;28;20211;-68
2023/08/21 07:02:53;;;;;;;15.95;14.35;;;;;;;26.54;58.12;100802.06;5031549;28;20627;-69
2023/08/21 07:05:21;;;;;;;14.52;13.13;;;;;;;26.27;59.21;100801.09;5030826;28;20665;-69
2023/08/21 07:07:49;;;;;;;18.05;14.63;;;;;;;25.98;59.83;100794.19;5031204;28;20689;-67
2023/08/21 07:10:18;;;;;;;17.52;14.55;;;;;;;25.72;61.25;100807.22;5017209;28;20210;-68
2023/08/21 07:12:46;;;;;;;16.15;14.05;;;;;;;25.49;62.21;100813.09;5030274;28;20684;-67
2023/08/21 07:15:15;;;;;;;15.43;13.93;;;;;;;25.06;63.49;100813.88;5031014;28;20568;-68
2023/08/21 07:17:43;;;;;;;17.23;14.50;;;;;;;24.82;64.95;100823.25;5031550;28;20245;-69
2023/08/21 07:20:12;;;;;;;17.13;15.52;;;;;;;24.58;65.62;100831.63;5030518;28;20227;-68
2023/08/21 07:22:40;;;;;;;16.67;14.98;;;;;;;24.29;66.76;100835.03;5012357;28;20207;-67
2023/08/21 07:25:09;;;;;;;15.30;13.75;;;;;;;24.18;67.80;100833.00;5023673;28;20199;-69
2023/08/21 07:27:39;;;;;;;17.02;15.32;;;;;;;24.12;68.58;100841.25;5028467;28;20202;-67
2023/08/21 07:30:08;;;;;;;17.25;15.60;;;;;;;23.96;69.09;100850.91;5030682;28;20214;-68
2023/08/21 07:32:36;;;;;;;19.02;16.20;;;;;;;23.74;70.04;100853.84;5018841;28;20702;-69
2023/08/21 07:35:06;;;;;;;16.73;15.10;;;;;;;23.58;70.36;100838.84;5033606;28;20210;-61
2023/08/21 07:37:33;;;;;;;17.48;15.55;;;;;;;23.36;71.24;100844.38;5034657;28;20549;-60
2023/08/21 07:40:01;;;;;;;18.02;16.33;;;;;;;23.37;71.77;100834.72;5020608;28;20666;-63
2023/08/21 07:42:29;;;;;;;18.48;16.67;;;;;;;23.35;71.97;100832.19;5034356;28;20298;-63
2023/08/21 07:44:59;;;;;;;18.20;16.27;;;;;;;23.31;71.99;100829.78;5020414;28;20593;-63
2023/08/21 07:47:28;;;;;;;17.10;15.50;;;;;;;23.34;72.13;100832.25;5028287;28;20286;-62
2023/08/21 07:49:57;;;;;;;18.13;16.33;;;;;;;23.40;71.79;100829.31;5020471;28;20597;-60
2023/08/21 07:52:25;;;;;;;17.25;15.43;;;;;;;23.46;71.48;100842.13;5034078;28;20233;-60
2023/08/21 07:54:53;;;;;;;18.52;14.68;;;;;;;23.48;71.66;100835.00;5030306;28;20202;-61
2023/08/21 07:57:21;;;;;;;17.20;15.40;;;;;;;23.58;71.33;100832.75;5027028;28;20587;-62
2023/08/21 07:59:49;;;;;;;16.33;14.82;;;;;;;23.67;71.13;100834.06;5034041;28;20679;-63
2023/08/21 08:02:18;;;;;;;17.35;15.55;;;;;;;23.75;70.82;100834.47;5033904;28;20210;-63
2023/08/21 08:04:46;;;;;;;16.85;15.15;;;;;;;23.91;70.21;100829.25;5034098;28;20198;-61
2023/08/21 08:07:14;;;;;;;17.20;15.50;;;;;;;24.10;69.09;100822.88;5020262;28;20244;-62
2023/08/21 08:09:42;;;;;;;15.98;14.27;;;;;;;24.71;68.22;100820.38;5034081;28;20209;-62
2023/08/21 08:12:10;;;;;;;16.52;14.93;;;;;;;25.10;65.28;100821.59;5032787;28;20641;-61
2023/08/21 08:14:38;;;;;;;15.65;14.07;;;;;;;25.24;65.45;100819.88;5032941;28;20203;-61
2023/08/21 08:17:06;;;;;;;14.75;13.18;;;;;;;25.46;65.02;100808.84;5033623;28;20246;-64
2023/08/21 08:19:35;;;;;;;14.32;12.90;;;;;;;25.86;63.37;100810.84;5033552;28;20217;-62
2023/08/21 08:22:03;;;;;;;13.80;12.35;;;;;;;26.22;62.25;100815.56;5032376;28;20274;-64
2023/08/21 08:24:31;;;;;;;14.85;13.25;;;;;;;26.41;61.04;100818.69;5022458;28;20642;-63
2023/08/21 08:26:59;;;;;;;12.93;11.73;;;;;;;26.49;60.95;100813.78;5033791;28;20662;-61
2023/08/21 08:29:28;;;;;;;13.13;11.93;;;;;;;27.01;60.52;100816.53;5033609;28;20202;-61
2023/08/21 08:31:55;;;;;;;13.60;12.35;;;;;;;27.68;58.08;100804.75;5024131;28;20297;-62
2023/08/21 08:34:23;;;;;;;13.45;12.25;;;;;;;27.76;56.41;100809.53;5029399;28;20586;-63
2023/08/21 08:36:53;;;;;;;12.73;11.45;;;;;;;27.70;56.74;100807.31;5033376;28;20254;-62
2023/08/21 08:39:21;;;;;;;12.43;11.15;;;;;;;27.67;57.00;100799.59;5033301;28;20206;-66
2023/08/21 08:41:55;;;;;;;11.95;10.85;;;;;;;28.10;56.23;100794.72;5033488;28;20203;-62
2023/08/21 08:44:25;;;;;;;12.93;10.20;;;;;;;29.15;53.14;100795.72;5031245;28;20205;-62
2023/08/21 08:46:53;;;;;;;11.38;9.23;;;;;;;29.64;50.98;100783.91;5029392;28;20241;-63
2023/08/21 08:49:22;;;;;;;10.10;9.18;;;;;;;30.29;50.07;100777.75;5033413;28;20210;-62
2023/08/21 08:51:53;;;;;;;9.73;8.93;;;;;;;31.22;47.39;100768.13;5033151;28;20221;-63
2023/08/21 08:54:23;;;;;;;9.68;8.55;;;;;;;31.71;44.74;100769.19;5033140;28;20210;-64
2023/08/21 08:56:51;;;;;;;9.15;8.18;;;;;;;31.76;44.33;100765.13;5033188;28;20708;-63
2023/08/21 08:59:22;;;;;;;10.18;8.82;;;;;;;31.53;44.49;100763.69;5033108;28;20660;-61
2023/08/21 09:01:50;;;;;;;9.93;9.02;;;;;;;31.60;44.18;100756.84;5033104;28;20566;-60
2023/08/21 09:04:18;;;;;;;10.73;8.52;;;;;;;32.48;42.46;100749.81;5032802;28;20230;-62
2023/08/21 09:06:46;;;;;;;8.05;7.10;;;;;;;33.50;39.70;100741.91;5032957;28;20736;-65
2023/08/21 09:09:15;;;;;;;11.23;7.32;;;;;;;34.31;38.21;100746.41;5032912;28;20220;-64
2023/08/21 09:11:44;;;;;;;9.15;7.43;;;;;;;34.97;36.40;100740.53;5031927;28;20206;-62
2023/08/21 09:14:12;;;;;;;9.15;7.05;;;;;;;35.62;35.42;100741.88;5032982;28;20646;-64
2023/08/21 09:17:00;;;;;;;7.72;7.07;;;;;;;36.20;33.98;100736.44;5032527;28;20202;-62
2023/08/21 09:19:28;;;;;;;9.18;7.15;;;;;;;36.77;33.63;100743.63;5032968;28;20199;-63
2023/08/21 09:21:56;;;;;;;6.75;6.25;;;;;;;37.16;33.12;100734.81;5032346;28;20238;-64
2023/08/21 09:24:26;;;;;;;7.50;6.80;;;;;;;37.39;32.57;100743.75;5032385;28;20203;-63
2023/08/21 09:26:54;;;;;;;6.60;6.00;;;;;;;36.99;32.23;100740.22;5032632;28;20222;-65
2023/08/21 09:29:22;;;;;;;6.25;5.75;;;;;;;36.38;32.08;100741.66;5032563;28;20566;-61
2023/08/21 09:31:50;;;;;;;6.78;6.18;;;;;;;35.87;33.62;100746.28;5032382;28;20680;-63
2023/08/21 09:34:19;;;;;;;6.13;4.97;;;;;;;35.32;32.46;100744.09;5031523;28;20238;-64
2023/08/21 09:36:55;;;;;;;6.15;5.00;;;;;;;34.93;31.98;100746.38;5032072;28;20222;-63
2023/08/21 09:39:23;;;;;;;5.80;5.25;;;;;;;34.48;33.32;100742.88;5032121;28;20210;-63
2023/08/21 09:41:57;;;;;;;6.72;5.38;;;;;;;34.35;34.21;100739.75;5032422;28;20821;-64
2023/08/21 09:44:25;;;;;;;6.82;5.63;;;;;;;34.25;35.26;100739.03;5032507;28;20210;-62
2023/08/21 09:46:53;;;;;;;6.00;5.50;;;;;;;33.94;34.94;100733.19;5032047;28;20214;-68
2023/08/21 09:49:23;;;;;;;5.63;5.13;;;;;;;33.73;35.71;100739.69;5032113;28;20293;-63
2023/08/21 09:51:51;;;;;;;5.72;4.90;;;;;;;33.59;34.59;100730.31;5032248;28;20211;-63
2023/08/21 09:54:19;;;;;;;5.97;4.95;;;;;;;33.57;35.31;100728.78;5032329;28;20700;-62
2023/08/21 09:56:49;;;;;;;6.20;4.93;;;;;;;33.42;34.51;100731.09;5030858;28;20203;-61
2023/08/21 09:59:20;;;;;;;4.80;4.35;;;;;;;33.61;33.15;100728.31;5032080;28;20227;-71
2023/08/21 10:01:51;;;;;;;4.10;3.80;;;;;;;33.86;31.71;100725.91;5031931;28;20689;-70
2023/08/21 10:04:23;;;;;;;3.88;3.58;;;;;;;34.20;31.13;100720.72;5031432;28;20214;-68
2023/08/21 10:06:54;;;;;;;3.95;3.35;;;;;;;34.48;28.11;100724.13;5031349;28;20213;-68
2023/08/21 10:09:25;;;;;;;3.35;3.05;;;;;;;35.04;27.54;100730.88;5032038;28;20206;-70
2023/08/21 10:11:54;;;;;;;3.45;3.13;;;;;;;35.58;26.50;100727.13;5029337;28;20231;-70
2023/08/21 10:14:24;;;;;;;3.47;3.17;;;;;;;36.16;25.82;100728.88;5020803;28;20244;-70
2023/08/21 10:16:54;;;;;;;4.13;3.70;;;;;;;36.39;25.82;100718.31;5031496;28;20257;-69
2023/08/21 10:19:22;;;;;;;4.38;3.83;;;;;;;36.56;26.95;100719.97;5031495;28;20206;-68
2023/08/21 10:21:50;;;;;;;3.33;3.13;;;;;;;36.95;25.45;100714.72;5031549;28;20206;-69
2023/08/21 10:24:29;;;;;;;2.50;2.40;;;;;;;37.18;23.60;100725.53;5031262;28;20207;-69
2023/08/21 10:27:00;;;;;;;2.85;2.65;;;;;;;36.92;22.22;100719.56;5031157;28;20292;-68
2023/08/21 10:29:31;;;;;;;3.13;2.92;;;;;;;36.99;23.31;100725.97;5031211;28;20194;-64
2023/08/21 10:32:02;;;;;;;3.10;2.80;;;;;;;37.39;23.40;100727.63;5021193;28;20263;-62
2023/08/21 10:34:35;;;;;;;4.13;2.92;;;;;;;37.81;22.25;100725.56;5026371;28;20198;-62
2023/08/21 10:37:12;;;;;;;3.53;3.17;;;;;;;37.71;23.47;100732.03;5030525;28;20297;-64
2023/08/21 10:39:56;;;;;;;2.95;2.75;;;;;;;37.75;23.67;100729.81;5031160;28;20202;-62
2023/08/21 10:42:38;;;;;;;3.85;3.55;;;;;;;37.98;22.79;100734.38;5031051;28;20206;-62
2023/08/21 10:45:18;;;;;;;3.60;3.30;;;;;;;37.98;21.95;100734.38;5017282;28;20202;-68
2023/08/21 10:47:47;;;;;;;3.42;3.22;;;;;;;37.85;22.00;100733.06;5031135;28;20210;-65
2023/08/21 10:50:15;;;;;;;3.28;3.08;;;;;;;37.04;21.02;100733.50;5017469;28;20234;-64
2023/08/21 10:52:45;;;;;;;3.13;2.88;;;;;;;36.40;20.98;100741.47;5031022;28;20237;-64
2023/08/21 10:55:14;;;;;;;3.30;3.00;;;;;;;36.31;19.27;100748.69;5031007;28;20210;-63
2023/08/21 10:57:42;;;;;;;3.63;3.33;;;;;;;35.93;19.73;100744.75;5031105;28;20558;-62
2023/08/21 11:00:12;;;;;;;3.90;3.60;;;;;;;35.84;20.86;100740.41;5030777;28;20253;-64
2023/08/21 11:02:42;;;;;;;4.20;3.80;;;;;;;36.07;20.86;100736.09;5030350;28;20252;-64
2023/08/21 11:05:12;;;;;;;4.18;3.78;;;;;;;36.09;20.61;100728.72;5030525;28;20634;-61
2023/08/21 11:07:43;;;;;;;4.15;3.75;;;;;;;36.07;20.39;100737.94;5030725;28;20303;-63
2023/08/21 11:10:14;;;;;;;3.45;3.25;;;;;;;36.02;19.73;100741.97;5030739;28;20198;-63
2023/08/21 11:12:51;;;;;;;3.40;3.20;;;;;;;35.90;20.13;100748.63;5030982;28;20276;-63
2023/08/21 11:15:20;;;;;;;3.85;3.55;;;;;;;35.81;20.47;100741.56;5030618;28;20198;-63
2023/08/21 11:17:59;;;;;;;4.07;3.78;;;;;;;35.79;21.28;100751.59;5030800;28;20572;-62
2023/08/21 11:20:31;;;;;;;3.80;3.50;;;;;;;35.49;20.84;100745.81;5013549;28;20298;-62